Time;durP1;ratioP1;P1;durP2;ratioP2;P2;SDS_P1;SDS_P2;PMS_P1;PMS_P2;Temp;Humidity;BMP_temperature;BMP_pressure;BME280_temperature;BME280_humidity;BME280_pressure;Samples;Min_cycle;Max_cycle;Signal;HPM_P1;HPM_P2
2021/08/18 00:00:52;;;;;;;13.07;4.40;;;26.60;54.20;;;;;;5053161;28;20029;-50
2021/08/18 00:03:18;;;;;;;14.38;4.85;;;26.60;54.40;;;;;;5056367;28;20441;-50
2021/08/18 00:05:46;;;;;;;14.73;4.93;;;26.60;54.70;;;;;;5056797;28;20473;-50
2021/08/18 00:08:13;;;;;;;16.17;4.32;;;26.60;55.00;;;;;;5056701;28;20025;-50
2021/08/18 00:10:42;;;;;;;12.45;4.28;;;26.60;55.00;;;;;;5056934;28;20091;-50
2021/08/18 00:13:10;;;;;;;14.30;4.53;;;26.60;54.70;;;;;;5056407;28;20024;-50
2021/08/18 00:15:39;;;;;;;14.82;4.47;;;26.50;54.60;;;;;;5056672;28;20071;-50
2021/08/18 00:18:05;;;;;;;11.25;4.28;;;26.50;54.70;;;;;;5055938;28;20066;-50
2021/08/18 00:20:33;;;;;;;17.70;4.85;;;26.50;55.00;;;;;;5056477;28;20100;-50
2021/08/18 00:23:00;;;;;;;14.00;4.32;;;26.50;55.60;;;;;;5056353;28;20358;-50
2021/08/18 00:25:27;;;;;;;9.75;4.00;;;26.50;55.20;;;;;;5056140;28;20021;-50
2021/08/18 00:27:54;;;;;;;15.73;4.38;;;26.40;55.40;;;;;;5055277;28;20032;-50
2021/08/18 00:30:21;;;;;;;15.70;4.72;;;26.40;55.20;;;;;;5055956;28;20021;-50
2021/08/18 00:32:47;;;;;;;11.15;4.15;;;26.40;55.00;;;;;;5050965;28;20029;-51
2021/08/18 00:35:14;;;;;;;11.43;4.70;;;26.40;55.10;;;;;;5056479;28;20021;-50
2021/08/18 00:37:41;;;;;;;19.25;5.18;;;26.30;55.10;;;;;;5057020;28;20029;-50
2021/08/18 00:40:08;;;;;;;19.95;5.28;;;26.30;55.00;;;;;;5056539;28;20045;-50
2021/08/18 00:42:35;;;;;;;13.48;4.45;;;26.30;55.10;;;;;;5056799;28;20021;-50
2021/08/18 00:45:02;;;;;;;16.10;4.47;;;26.30;55.20;;;;;;5055994;28;20029;-50
2021/08/18 00:47:29;;;;;;;19.38;4.80;;;26.30;55.10;;;;;;5056711;28;20023;-50
2021/08/18 00:49:55;;;;;;;11.20;4.35;;;26.30;55.40;;;;;;5056029;28;20035;-50
2021/08/18 00:52:21;;;;;;;17.00;5.00;;;26.30;55.30;;;;;;5056540;28;20017;-50
2021/08/18 00:54:48;;;;;;;15.70;4.75;;;26.30;55.10;;;;;;5056336;28;20078;-50
2021/08/18 00:57:15;;;;;;;12.70;4.70;;;26.20;54.90;;;;;;5056435;28;20070;-50
2021/08/18 00:59:42;;;;;;;9.63;4.32;;;26.20;54.90;;;;;;5056097;28;20471;-50
2021/08/18 01:02:09;;;;;;;15.05;4.72;;;26.20;54.50;;;;;;5056361;28;20028;-50
2021/08/18 01:04:35;;;;;;;16.60;4.82;;;26.20;54.30;;;;;;5056320;28;20013;-50
2021/08/18 01:07:02;;;;;;;12.73;4.75;;;26.20;54.50;;;;;;5055908;28;20025;-50
2021/08/18 01:09:28;;;;;;;15.30;4.55;;;26.20;54.40;;;;;;5055920;28;20025;-50
2021/08/18 01:11:55;;;;;;;11.77;4.53;;;26.20;53.60;;;;;;5055486;28;20029;-50
2021/08/18 01:14:22;;;;;;;13.88;4.55;;;26.20;54.20;;;;;;5055582;28;20365;-50
2021/08/18 01:16:49;;;;;;;14.35;4.75;;;26.20;54.10;;;;;;5055885;28;20454;-50
2021/08/18 01:19:17;;;;;;;11.32;4.63;;;26.20;53.80;;;;;;5055948;28;20357;-50
2021/08/18 01:21:45;;;;;;;11.85;4.60;;;26.20;54.00;;;;;;5055676;28;20029;-50
2021/08/18 01:24:13;;;;;;;9.68;4.30;;;26.20;54.10;;;;;;5056202;28;20036;-50
2021/08/18 01:26:41;;;;;;;11.55;4.32;;;26.10;54.30;;;;;;5055616;28;20032;-50
2021/08/18 01:29:08;;;;;;;13.65;4.55;;;26.10;54.20;;;;;;5055572;28;20457;-50
2021/08/18 01:31:34;;;;;;;10.70;4.60;;;26.10;54.00;;;;;;5055199;28;20024;-50
2021/08/18 01:34:03;;;;;;;13.50;4.72;;;26.10;54.10;;;;;;5055745;28;20024;-50
2021/08/18 01:36:31;;;;;;;9.40;4.32;;;26.10;54.20;;;;;;5055310;28;20453;-50
2021/08/18 01:39:06;;;;;;;13.13;4.47;;;26.10;54.40;;;;;;5055220;28;20032;-50
2021/08/18 01:41:33;;;;;;;15.85;4.40;;;26.10;54.40;;;;;;5055534;28;20454;-50
2021/08/18 01:43:59;;;;;;;11.20;4.57;;;26.10;54.40;;;;;;5055242;28;20099;-50
2021/08/18 01:46:26;;;;;;;12.05;4.32;;;26.10;54.50;;;;;;5055898;28;20029;-50
2021/08/18 01:48:56;;;;;;;16.15;4.38;;;26.10;54.80;;;;;;5055151;28;20021;-50
2021/08/18 01:51:23;;;;;;;11.50;4.10;;;26.10;54.90;;;;;;5055400;28;20017;-50
2021/08/18 01:53:49;;;;;;;11.20;4.20;;;26.10;54.70;;;;;;5055077;28;20017;-50
2021/08/18 01:56:16;;;;;;;11.88;4.30;;;26.10;54.60;;;;;;5054560;28;20036;-50
2021/08/18 01:58:44;;;;;;;12.50;4.18;;;26.10;54.80;;;;;;5055153;28;20028;-50
2021/08/18 02:01:14;;;;;;;10.95;4.07;;;26.00;55.10;;;;;;5054873;28;20495;-50
2021/08/18 02:03:41;;;;;;;10.68;4.15;;;26.00;54.70;;;;;;5054821;28;20075;-50
2021/08/18 02:06:07;;;;;;;9.13;3.67;;;26.00;55.10;;;;;;5054794;28;20025;-50
2021/08/18 02:08:34;;;;;;;10.98;3.90;;;26.00;55.40;;;;;;5054820;28;20029;-50
2021/08/18 02:11:01;;;;;;;12.65;3.97;;;26.00;55.10;;;;;;5054750;28;20021;-50
2021/08/18 02:13:27;;;;;;;11.95;4.03;;;25.90;55.40;;;;;;5054935;28;20400;-50
2021/08/18 02:15:54;;;;;;;10.25;3.78;;;25.90;55.20;;;;;;5054426;28;20373;-50
2021/08/18 02:18:21;;;;;;;10.63;4.18;;;25.90;55.10;;;;;;5054228;28;20051;-50
2021/08/18 02:20:47;;;;;;;9.90;4.03;;;25.90;55.70;;;;;;5054273;28;20466;-50
2021/08/18 02:23:15;;;;;;;12.85;3.70;;;25.90;55.80;;;;;;5054494;28;20081;-50
2021/08/18 02:25:43;;;;;;;8.43;3.72;;;25.80;55.80;;;;;;5054485;28;20021;-50
2021/08/18 02:28:09;;;;;;;12.50;3.95;;;25.80;56.00;;;;;;5054392;28;20090;-50
2021/08/18 02:30:37;;;;;;;7.32;3.63;;;25.80;55.50;;;;;;5054375;28;20017;-50
2021/08/18 02:33:04;;;;;;;7.20;3.20;;;25.70;56.10;;;;;;5050998;28;20045;-51
2021/08/18 02:35:31;;;;;;;9.68;3.67;;;25.70;55.60;;;;;;5055950;28;20043;-50
2021/08/18 02:38:00;;;;;;;11.20;3.72;;;25.70;54.40;;;;;;5048704;28;20035;-50
2021/08/18 02:40:28;;;;;;;11.05;3.80;;;25.60;54.80;;;;;;5042582;28;20368;-50
2021/08/18 02:42:56;;;;;;;11.40;3.50;;;25.60;54.90;;;;;;5054189;28;20021;-50
2021/08/18 02:45:24;;;;;;;12.25;3.97;;;25.60;54.80;;;;;;5037571;28;20479;-50
2021/08/18 02:47:51;;;;;;;12.00;3.97;;;25.60;54.90;;;;;;5052336;28;20017;-50
2021/08/18 02:50:21;;;;;;;10.30;3.55;;;25.50;55.20;;;;;;5054048;28;20021;-52
2021/08/18 02:52:48;;;;;;;11.98;3.78;;;25.50;55.60;;;;;;5047841;28;20036;-50
2021/08/18 02:55:14;;;;;;;11.55;3.78;;;25.40;55.60;;;;;;5046010;28;20372;-50
2021/08/18 02:57:41;;;;;;;9.85;3.65;;;25.40;55.70;;;;;;5052314;28;20021;-50
2021/08/18 03:00:09;;;;;;;13.63;4.95;;;25.40;55.80;;;;;;5053014;28;20104;-50
2021/08/18 03:02:35;;;;;;;9.05;3.83;;;25.40;56.20;;;;;;5044105;28;20025;-50
2021/08/18 03:05:03;;;;;;;11.73;3.72;;;25.40;56.50;;;;;;5052683;28;20017;-50
2021/08/18 03:07:29;;;;;;;11.75;4.05;;;25.40;56.80;;;;;;5048207;28;20128;-50
2021/08/18 03:09:56;;;;;;;10.95;3.90;;;25.30;56.80;;;;;;5051750;28;20388;-50
2021/08/18 03:12:22;;;;;;;13.57;3.92;;;25.30;56.80;;;;;;5052952;28;20369;-50
2021/08/18 03:14:49;;;;;;;12.10;3.80;;;25.30;56.70;;;;;;5052219;28;20021;-50
2021/08/18 03:17:16;;;;;;;10.68;3.70;;;25.20;56.70;;;;;;5052630;28;20019;-50
2021/08/18 03:19:42;;;;;;;11.20;4.30;;;25.30;56.90;;;;;;5056560;28;20500;-50
2021/08/18 03:22:09;;;;;;;13.05;3.80;;;25.20;57.00;;;;;;5055092;28;20523;-50
2021/08/18 03:24:36;;;;;;;11.05;3.75;;;25.20;57.00;;;;;;5051737;28;20104;-50
2021/08/18 03:27:03;;;;;;;8.77;3.67;;;25.20;57.30;;;;;;5053040;28;20021;-50
2021/08/18 03:29:29;;;;;;;13.63;3.95;;;25.20;57.20;;;;;;5052628;28;20017;-49
2021/08/18 03:31:56;;;;;;;8.35;3.20;;;25.20;57.20;;;;;;5051879;28;20021;-49
2021/08/18 03:34:22;;;;;;;13.45;3.60;;;25.10;56.90;;;;;;5052677;28;20379;-49
2021/08/18 03:36:49;;;;;;;9.05;3.45;;;25.10;57.00;;;;;;5054344;28;20458;-49
2021/08/18 03:39:15;;;;;;;9.45;3.58;;;25.10;57.10;;;;;;5056862;28;20021;-50
2021/08/18 03:41:42;;;;;;;9.13;3.35;;;25.10;57.00;;;;;;5066971;28;20017;-50
2021/08/18 03:44:08;;;;;;;11.68;3.60;;;25.10;56.90;;;;;;5065198;28;20021;-50
2021/08/18 03:46:35;;;;;;;13.00;3.80;;;25.00;56.90;;;;;;5056712;28;20029;-49
2021/08/18 03:49:01;;;;;;;10.40;3.35;;;25.00;57.00;;;;;;5056969;28;20025;-50
2021/08/18 03:51:28;;;;;;;12.80;3.28;;;25.00;57.50;;;;;;5057192;28;20032;-50
2021/08/18 03:53:54;;;;;;;11.85;3.25;;;24.90;57.20;;;;;;5056894;28;20031;-49
2021/08/18 03:56:21;;;;;;;9.55;3.15;;;24.90;57.40;;;;;;5056394;28;20033;-49
2021/08/18 03:58:47;;;;;;;11.73;3.50;;;24.90;57.30;;;;;;5057167;28;20032;-50
2021/08/18 04:01:14;;;;;;;7.68;2.95;;;24.90;57.80;;;;;;5056111;28;20129;-50
2021/08/18 04:03:40;;;;;;;12.75;3.45;;;24.80;57.20;;;;;;5056564;28;20430;-50
2021/08/18 04:06:07;;;;;;;10.40;3.38;;;24.80;57.00;;;;;;5056326;28;20147;-50
2021/08/18 04:08:34;;;;;;;9.73;3.35;;;24.80;56.80;;;;;;5056758;28;20033;-50
2021/08/18 04:11:04;;;;;;;9.52;3.17;;;24.80;56.70;;;;;;5056405;28;20048;-50
2021/08/18 04:13:31;;;;;;;9.88;3.28;;;24.70;56.70;;;;;;5056620;28;20649;-50
2021/08/18 04:15:58;;;;;;;13.48;3.67;;;24.70;56.50;;;;;;5056274;28;20497;-50
2021/08/18 04:18:24;;;;;;;9.25;3.40;;;24.70;56.60;;;;;;5056504;28;20032;-50
2021/08/18 04:20:51;;;;;;;11.55;2.92;;;24.70;56.90;;;;;;5055967;28;20083;-50
2021/08/18 04:23:17;;;;;;;7.25;3.13;;;24.70;56.60;;;;;;5055942;28;20380;-50
2021/08/18 04:25:44;;;;;;;9.00;3.40;;;24.60;56.60;;;;;;5055998;28;20033;-49
2021/08/18 04:28:11;;;;;;;7.88;3.13;;;24.60;56.60;;;;;;5055620;28;20021;-50
2021/08/18 04:30:37;;;;;;;9.52;3.80;;;24.60;56.90;;;;;;5055554;28;20082;-49
2021/08/18 04:33:04;;;;;;;10.70;3.25;;;24.60;56.90;;;;;;5056546;28;20424;-50
2021/08/18 04:35:30;;;;;;;4.80;2.65;;;24.50;56.70;;;;;;5058627;28;20040;-50
2021/08/18 04:37:57;;;;;;;11.07;3.00;;;24.50;56.80;;;;;;5076557;28;20468;-50
2021/08/18 04:40:24;;;;;;;9.45;3.10;;;24.50;57.00;;;;;;5075109;28;20082;-49
2021/08/18 04:42:51;;;;;;;7.38;2.88;;;24.50;57.20;;;;;;5055731;28;20021;-49
2021/08/18 04:45:18;;;;;;;8.43;2.90;;;24.50;57.20;;;;;;5055980;28;20104;-50
2021/08/18 04:47:45;;;;;;;6.78;2.80;;;24.30;57.40;;;;;;5056214;28;20029;-50
2021/08/18 04:50:13;;;;;;;9.15;2.58;;;24.40;57.50;;;;;;5055288;28;20029;-52
2021/08/18 04:52:40;;;;;;;19.35;3.85;;;24.30;57.60;;;;;;5060068;28;20047;-52
2021/08/18 04:55:07;;;;;;;16.65;3.67;;;24.30;57.70;;;;;;5054173;28;20124;-51
2021/08/18 04:57:34;;;;;;;13.18;3.65;;;24.30;58.20;;;;;;5055232;28;20024;-51
2021/08/18 05:00:01;;;;;;;13.88;3.50;;;24.30;58.10;;;;;;5055551;28;20457;-52
2021/08/18 05:02:28;;;;;;;14.35;3.20;;;24.30;58.30;;;;;;5055451;28;20024;-51
2021/08/18 05:04:54;;;;;;;13.00;3.25;;;24.20;58.30;;;;;;5054563;28;20020;-52
2021/08/18 05:07:21;;;;;;;8.55;2.95;;;24.20;58.50;;;;;;5054812;28;20415;-51
2021/08/18 05:09:47;;;;;;;8.50;2.92;;;24.20;58.60;;;;;;5058671;28;20457;-51
2021/08/18 05:12:14;;;;;;;10.50;3.20;;;24.20;58.70;;;;;;5075802;28;20025;-51
2021/08/18 05:14:40;;;;;;;6.32;2.83;;;24.20;58.80;;;;;;5075289;28;20028;-51
2021/08/18 05:17:07;;;;;;;9.60;3.08;;;24.10;58.70;;;;;;5060390;28;20025;-51
2021/08/18 05:19:34;;;;;;;9.57;3.08;;;24.10;58.80;;;;;;5055497;28;20024;-51
2021/08/18 05:22:00;;;;;;;11.15;3.28;;;24.10;58.90;;;;;;5055147;28;20029;-51
2021/08/18 05:24:27;;;;;;;7.95;2.42;;;24.10;58.90;;;;;;5036305;28;20032;-51
2021/08/18 05:26:53;;;;;;;7.88;2.97;;;24.10;59.00;;;;;;5048760;28;20028;-51
2021/08/18 05:29:20;;;;;;;8.13;2.65;;;24.00;59.00;;;;;;5053018;28;20404;-51
2021/08/18 05:31:46;;;;;;;6.97;2.90;;;24.00;59.00;;;;;;5054792;28;20361;-51
2021/08/18 05:34:13;;;;;;;10.93;2.78;;;24.00;59.00;;;;;;5054133;28;20154;-51
2021/08/18 05:36:40;;;;;;;7.95;3.00;;;24.00;59.00;;;;;;5055038;28;20036;-51
2021/08/18 05:39:06;;;;;;;7.22;2.70;;;24.00;59.10;;;;;;5058332;28;20074;-51
2021/08/18 05:41:33;;;;;;;8.50;2.95;;;24.00;58.80;;;;;;5063616;28;20457;-51
2021/08/18 05:44:00;;;;;;;7.82;2.70;;;23.90;58.90;;;;;;5061426;28;20071;-51
2021/08/18 05:46:27;;;;;;;4.18;2.15;;;23.90;58.70;;;;;;5053489;28;20449;-50
2021/08/18 05:48:53;;;;;;;5.15;2.53;;;23.90;58.70;;;;;;5054376;28;20025;-51
2021/08/18 05:51:20;;;;;;;5.13;2.58;;;23.90;58.80;;;;;;5055259;28;20489;-51
2021/08/18 05:53:50;;;;;;;8.90;2.97;;;23.90;58.80;;;;;;5054558;28;20021;-51
2021/08/18 05:56:18;;;;;;;6.50;2.70;;;23.90;58.90;;;;;;5053388;28;20123;-51
2021/08/18 05:58:45;;;;;;;6.03;2.50;;;23.80;58.50;;;;;;5053948;28;20025;-51
2021/08/18 06:01:11;;;;;;;5.70;2.83;;;23.80;58.50;;;;;;5054056;28;20021;-50
2021/08/18 06:03:38;;;;;;;4.85;2.58;;;23.80;58.40;;;;;;5054137;28;20024;-51
2021/08/18 06:06:05;;;;;;;9.15;2.92;;;23.80;58.40;;;;;;5052394;28;20162;-50
2021/08/18 06:08:31;;;;;;;7.05;2.63;;;23.70;58.50;;;;;;5054219;28;20033;-51
2021/08/18 06:10:58;;;;;;;7.85;2.75;;;23.70;58.40;;;;;;5054463;28;20025;-51
2021/08/18 06:13:24;;;;;;;5.20;2.45;;;23.70;58.40;;;;;;5054419;28;20021;-51
2021/08/18 06:15:52;;;;;;;8.20;2.70;;;23.70;58.40;;;;;;5054807;28;20233;-51
2021/08/18 06:18:19;;;;;;;5.60;2.45;;;23.70;58.40;;;;;;5065631;28;20025;-51
2021/08/18 06:20:45;;;;;;;6.82;2.63;;;23.60;58.40;;;;;;5058233;28;20028;-51
2021/08/18 06:23:12;;;;;;;4.70;2.28;;;23.60;58.30;;;;;;5055749;28;20468;-50
2021/08/18 06:25:38;;;;;;;8.95;2.72;;;23.60;58.40;;;;;;5071058;28;20028;-51
2021/08/18 06:28:05;;;;;;;6.80;2.78;;;23.50;58.70;;;;;;5053721;28;20083;-51
2021/08/18 06:30:32;;;;;;;6.13;2.38;;;23.50;58.50;;;;;;5054165;28;20098;-51
2021/08/18 06:32:58;;;;;;;7.22;2.70;;;23.50;58.50;;;;;;5053950;28;20411;-51
2021/08/18 06:35:26;;;;;;;5.70;2.70;;;23.50;58.60;;;;;;5053463;28;20036;-50
2021/08/18 06:37:52;;;;;;;5.88;2.92;;;23.40;58.70;;;;;;5054192;28;20445;-51
2021/08/18 06:40:19;;;;;;;6.10;2.63;;;23.40;58.80;;;;;;5053360;28;20028;-50
2021/08/18 06:42:45;;;;;;;5.30;2.30;;;23.40;58.80;;;;;;5053509;28;20021;-51
2021/08/18 06:45:13;;;;;;;4.82;2.08;;;23.40;58.90;;;;;;5053662;28;20048;-50
2021/08/18 06:47:40;;;;;;;4.65;2.15;;;23.30;58.90;;;;;;5053760;28;20025;-51
2021/08/18 06:50:09;;;;;;;6.78;2.35;;;23.30;58.90;;;;;;5054134;28;20017;-51
2021/08/18 06:52:35;;;;;;;4.57;2.38;;;23.30;58.90;;;;;;5053156;28;20412;-51
2021/08/18 06:55:03;;;;;;;5.43;2.42;;;23.20;59.50;;;;;;5053303;28;20098;-51
2021/08/18 06:57:29;;;;;;;4.72;2.20;;;23.20;59.00;;;;;;5053439;28;20028;-51
2021/08/18 06:59:56;;;;;;;6.95;2.40;;;23.20;59.20;;;;;;5054316;28;20028;-51
2021/08/18 07:02:22;;;;;;;6.22;2.33;;;23.20;59.00;;;;;;5053199;28;20028;-51
2021/08/18 07:04:49;;;;;;;6.28;2.33;;;23.20;59.10;;;;;;5053423;28;20017;-50
2021/08/18 07:07:15;;;;;;;6.72;2.50;;;23.10;59.10;;;;;;5053257;28;20029;-51
2021/08/18 07:09:42;;;;;;;4.80;2.70;;;23.10;59.20;;;;;;5053305;28;20021;-51
2021/08/18 07:12:08;;;;;;;5.10;2.28;;;23.10;59.20;;;;;;5053048;28;20071;-50
2021/08/18 07:14:35;;;;;;;5.30;2.58;;;23.10;59.10;;;;;;5053493;28;20025;-51
2021/08/18 07:17:01;;;;;;;4.57;2.15;;;23.00;59.10;;;;;;5052463;28;20037;-51
2021/08/18 07:19:28;;;;;;;6.80;2.38;;;23.00;59.30;;;;;;5053378;28;20035;-51
2021/08/18 07:21:54;;;;;;;6.38;2.17;;;23.00;59.20;;;;;;5054039;28;20480;-51
2021/08/18 07:24:21;;;;;;;6.65;2.38;;;23.00;59.30;;;;;;5053770;28;20067;-50
2021/08/18 07:26:49;;;;;;;4.82;2.55;;;23.00;59.30;;;;;;5052771;28;20025;-51
2021/08/18 07:29:15;;;;;;;6.80;2.25;;;22.90;59.20;;;;;;5053226;28;20018;-51
2021/08/18 07:31:42;;;;;;;4.30;2.20;;;22.90;59.30;;;;;;5053406;28;20021;-51
2021/08/18 07:34:08;;;;;;;6.97;2.33;;;22.90;59.30;;;;;;5053341;28;20099;-50
2021/08/18 07:36:35;;;;;;;4.28;2.08;;;22.90;59.30;;;;;;5053774;28;20037;-51
2021/08/18 07:39:01;;;;;;;6.95;2.60;;;22.80;59.40;;;;;;5053289;28;20100;-51
2021/08/18 07:41:28;;;;;;;4.60;2.20;;;22.80;59.50;;;;;;5053303;28;20480;-51
2021/08/18 07:43:54;;;;;;;5.57;2.22;;;22.80;59.40;;;;;;5052569;28;20381;-51
2021/08/18 07:46:21;;;;;;;5.47;2.60;;;22.80;59.40;;;;;;5052913;28;20462;-51
2021/08/18 07:48:47;;;;;;;5.45;2.28;;;22.70;59.40;;;;;;5053782;28;20105;-51
2021/08/18 07:51:14;;;;;;;4.82;2.33;;;22.70;59.50;;;;;;5052622;28;20048;-50
2021/08/18 07:53:42;;;;;;;5.53;2.13;;;22.70;59.40;;;;;;5052775;28;20075;-50
2021/08/18 07:56:08;;;;;;;5.00;2.20;;;22.70;59.40;;;;;;5053021;28;20473;-51
2021/08/18 07:58:35;;;;;;;6.63;2.22;;;22.60;60.10;;;;;;5052162;28;20025;-50
2021/08/18 08:01:04;;;;;;;6.35;2.35;;;22.60;59.40;;;;;;5052890;28;20025;-50
2021/08/18 08:03:31;;;;;;;7.38;2.33;;;22.60;59.40;;;;;;5053400;28;20028;-50
2021/08/18 08:05:57;;;;;;;5.28;2.20;;;22.60;59.60;;;;;;5052843;28;20021;-50
2021/08/18 08:08:24;;;;;;;5.30;1.92;;;22.60;59.50;;;;;;5053019;28;20033;-50
2021/08/18 08:10:50;;;;;;;4.95;2.25;;;22.50;59.60;;;;;;5053006;28;20052;-50
2021/08/18 08:13:17;;;;;;;6.00;2.03;;;22.50;59.80;;;;;;5051758;28;20064;-50
2021/08/18 08:15:43;;;;;;;4.78;2.28;;;22.50;59.70;;;;;;5053046;28;20128;-50
2021/08/18 08:18:10;;;;;;;4.00;2.33;;;22.50;59.70;;;;;;5053007;28;20031;-50
2021/08/18 08:20:39;;;;;;;6.05;2.10;;;22.50;59.90;;;;;;5053013;28;20024;-50
2021/08/18 08:23:05;;;;;;;3.65;2.00;;;22.40;59.90;;;;;;5054559;28;20056;-50
2021/08/18 08:25:33;;;;;;;4.30;2.08;;;22.40;59.80;;;;;;5056565;28;20021;-50
2021/08/18 08:27:59;;;;;;;6.05;2.30;;;22.40;59.80;;;;;;5056305;28;20101;-51
2021/08/18 08:30:26;;;;;;;3.78;1.80;;;22.40;59.70;;;;;;5056208;28;20025;-50
2021/08/18 08:32:52;;;;;;;5.65;2.30;;;22.40;60.00;;;;;;5056460;28;20024;-50
2021/08/18 08:35:19;;;;;;;4.18;1.95;;;22.30;59.90;;;;;;5056029;28;20115;-50
2021/08/18 08:37:46;;;;;;;3.63;1.80;;;22.30;60.00;;;;;;5055692;28;20453;-50
2021/08/18 08:40:13;;;;;;;5.05;2.25;;;22.30;60.00;;;;;;5055467;28;20078;-50
2021/08/18 08:42:40;;;;;;;5.07;1.92;;;22.30;59.90;;;;;;5056447;28;20116;-50
2021/08/18 08:45:07;;;;;;;3.92;2.08;;;22.20;60.00;;;;;;5056500;28;20100;-50
2021/08/18 08:47:37;;;;;;;4.25;1.98;;;22.20;60.20;;;;;;5055852;28;20025;-51
2021/08/18 08:50:08;;;;;;;4.70;1.83;;;22.20;60.10;;;;;;5056109;28;20021;-51
2021/08/18 08:52:35;;;;;;;3.47;1.92;;;22.20;60.10;;;;;;5055544;28;20071;-50
2021/08/18 08:55:04;;;;;;;4.38;2.10;;;22.10;60.10;;;;;;5056152;28;20479;-50
2021/08/18 08:57:30;;;;;;;5.05;1.70;;;22.10;60.20;;;;;;5054911;28;20033;-51
2021/08/18 08:59:57;;;;;;;4.75;1.80;;;22.10;60.80;;;;;;5055471;28;20017;-51
2021/08/18 09:02:23;;;;;;;3.75;2.00;;;22.10;60.20;;;;;;5055240;28;20024;-50
2021/08/18 09:04:50;;;;;;;4.18;1.90;;;22.00;60.30;;;;;;5055106;28;20043;-50
2021/08/18 09:07:23;;;;;;;3.92;2.30;;;22.00;60.40;;;;;;5055131;28;20016;-50
2021/08/18 09:09:58;;;;;;;6.38;2.08;;;22.00;60.40;;;;;;5055860;28;20029;-50
2021/08/18 09:12:38;;;;;;;4.03;2.03;;;22.00;60.50;;;;;;5055259;28;20037;-50
2021/08/18 09:15:19;;;;;;;4.07;2.13;;;22.00;60.40;;;;;;5040516;28;20071;-50
2021/08/18 09:17:48;;;;;;;5.57;2.00;;;22.00;60.30;;;;;;5055630;28;20021;-50
2021/08/18 09:20:20;;;;;;;4.03;2.00;;;22.00;60.40;;;;;;5055717;28;20538;-50
2021/08/18 09:22:51;;;;;;;4.78;2.05;;;21.90;60.40;;;;;;5035826;28;20032;-50
2021/08/18 09:25:44;;;;;;;4.15;2.08;;;21.90;60.50;;;;;;5042597;28;20032;-50
2021/08/18 09:28:11;;;;;;;4.57;2.25;;;21.90;60.60;;;;;;5053421;28;20037;-50
2021/08/18 09:30:40;;;;;;;5.75;2.00;;;21.90;60.60;;;;;;5046993;28;20120;-50
2021/08/18 09:33:10;;;;;;;4.53;2.10;;;21.80;60.50;;;;;;5055123;28;20075;-50
2021/08/18 09:35:37;;;;;;;4.97;1.83;;;21.80;60.50;;;;;;5055162;28;20045;-51
2021/08/18 09:38:07;;;;;;;6.32;2.30;;;21.80;60.50;;;;;;5055128;28;20024;-50
2021/08/18 09:40:36;;;;;;;3.60;2.05;;;21.80;60.50;;;;;;5055059;28;20064;-51
2021/08/18 09:43:16;;;;;;;5.50;2.08;;;21.80;60.60;;;;;;5048740;28;20028;-51
2021/08/18 09:45:57;;;;;;;4.32;2.05;;;21.80;60.50;;;;;;5054462;28;20544;-50
2021/08/18 09:48:25;;;;;;;3.97;1.87;;;21.70;60.50;;;;;;5055446;28;20121;-50
2021/08/18 09:51:04;;;;;;;4.15;2.03;;;21.70;60.70;;;;;;5055792;28;20098;-50
2021/08/18 09:53:41;;;;;;;3.92;1.98;;;21.70;60.60;;;;;;5055136;28;20051;-50
2021/08/18 09:56:13;;;;;;;3.67;1.88;;;21.70;60.70;;;;;;5054862;28;20033;-50
2021/08/18 09:58:49;;;;;;;;;;;21.70;60.60;;;;;;5054691;28;20020;-51
2021/08/18 10:01:18;;;;;;;4.43;1.85;;;21.60;60.70;;;;;;5050505;28;19916;-50
2021/08/18 10:03:47;;;;;;;4.93;2.28;;;21.60;60.60;;;;;;5055198;28;20025;-50
2021/08/18 10:06:15;;;;;;;4.88;2.30;;;21.50;60.30;;;;;;5054559;28;20107;-50
2021/08/18 10:08:44;;;;;;;4.28;1.88;;;21.60;60.40;;;;;;5054447;28;20117;-50
2021/08/18 10:11:15;;;;;;;4.57;2.28;;;21.50;60.20;;;;;;5054181;28;20024;-50
2021/08/18 10:13:42;;;;;;;4.50;1.95;;;21.50;60.10;;;;;;5054223;28;20021;-50
2021/08/18 10:16:09;;;;;;;5.20;2.05;;;21.50;60.30;;;;;;5054359;28;20492;-50
2021/08/18 10:18:40;;;;;;;4.78;2.20;;;21.50;60.40;;;;;;5054705;28;20036;-50
2021/08/18 10:21:11;;;;;;;3.03;1.70;;;21.50;60.40;;;;;;5053944;28;20070;-50
2021/08/18 10:23:42;;;;;;;7.55;2.00;;;21.50;60.40;;;;;;5054379;28;20064;-50
2021/08/18 10:26:28;;;;;;;6.55;2.00;;;21.40;60.30;;;;;;5054683;28;20025;-50
2021/08/18 10:29:33;;;;;;;4.95;2.03;;;21.40;60.40;;;;;;5053499;28;20021;-50
2021/08/18 10:32:05;;;;;;;5.05;2.05;;;21.40;60.60;;;;;;5054176;28;20029;-50
2021/08/18 10:34:33;;;;;;;;;;;21.30;60.50;;;;;;5055011;28;20025;-50
2021/08/18 10:37:04;;;;;;;4.53;2.13;;;21.30;60.50;;;;;;5054496;28;19912;-50
2021/08/18 10:39:37;;;;;;;5.72;2.22;;;21.30;60.60;;;;;;5054007;28;20017;-50
2021/08/18 10:42:37;;;;;;;5.13;2.42;;;21.30;60.70;;;;;;5053565;28;20047;-50
2021/08/18 10:45:20;;;;;;;4.70;2.20;;;21.30;60.60;;;;;;5053927;28;20528;-50
2021/08/18 10:47:46;;;;;;;4.20;1.90;;;21.30;60.70;;;;;;5053918;28;20021;-50
2021/08/18 10:50:13;;;;;;;4.22;2.00;;;21.20;60.80;;;;;;5054130;28;20025;-50
2021/08/18 10:52:42;;;;;;;4.55;1.95;;;21.20;60.80;;;;;;5053452;28;20025;-50
2021/08/18 10:55:35;;;;;;;3.30;2.15;;;21.20;60.90;;;;;;5053226;28;20028;-50
2021/08/18 10:58:03;;;;;;;4.75;2.05;;;21.20;60.90;;;;;;5034863;28;20084;-50
2021/08/18 11:00:34;;;;;;;4.07;2.10;;;21.20;60.80;;;;;;5052597;28;20032;-50
2021/08/18 11:03:33;;;;;;;4.30;2.00;;;21.20;60.90;;;;;;5051494;28;20029;-50
2021/08/18 11:05:59;;;;;;;3.50;1.98;;;21.20;60.90;;;;;;5053843;28;20060;-50
2021/08/18 11:08:43;;;;;;;5.15;2.15;;;21.10;61.10;;;;;;5053654;28;20059;-50
2021/08/18 11:11:13;;;;;;;4.30;2.42;;;21.10;61.00;;;;;;5053076;28;20519;-50
2021/08/18 11:13:47;;;;;;;3.92;2.10;;;21.10;61.20;;;;;;5054084;28;20021;-50
2021/08/18 11:16:14;;;;;;;4.78;2.25;;;21.10;61.10;;;;;;5053623;28;20040;-50
2021/08/18 11:18:51;;;;;;;5.07;2.10;;;21.10;61.10;;;;;;5053750;28;20025;-50
2021/08/18 11:21:24;;;;;;;5.13;2.05;;;21.10;61.10;;;;;;5053041;28;20021;-50
2021/08/18 11:23:54;;;;;;;3.72;2.10;;;21.00;61.10;;;;;;5053762;28;20021;-50
2021/08/18 11:26:23;;;;;;;5.22;2.47;;;21.00;61.10;;;;;;5053560;28;20017;-50
2021/08/18 11:28:55;;;;;;;4.10;2.30;;;21.00;61.20;;;;;;5053383;28;20075;-50
2021/08/18 11:31:31;;;;;;;5.22;2.55;;;21.00;61.30;;;;;;5052985;28;20032;-50
2021/08/18 11:33:57;;;;;;;7.00;2.40;;;21.00;61.10;;;;;;5053292;28;20409;-50
2021/08/18 11:36:24;;;;;;;6.18;2.53;;;21.00;61.30;;;;;;5052624;28;20029;-50
2021/08/18 11:39:03;;;;;;;4.35;2.20;;;20.90;61.20;;;;;;5053121;28;20029;-50
2021/08/18 11:41:35;;;;;;;6.80;2.47;;;20.90;61.10;;;;;;5042502;28;20032;-50
2021/08/18 11:44:01;;;;;;;6.35;2.30;;;20.90;61.10;;;;;;5053550;28;20116;-50
2021/08/18 11:46:29;;;;;;;4.55;2.40;;;20.90;61.30;;;;;;5053261;28;20071;-50
2021/08/18 11:49:04;;;;;;;5.05;2.00;;;20.90;61.30;;;;;;5053403;28;20024;-50
2021/08/18 11:51:31;;;;;;;6.18;2.55;;;20.90;61.50;;;;;;5052699;28;20021;-50
2021/08/18 11:53:57;;;;;;;6.40;2.70;;;20.80;61.50;;;;;;5053312;28;20108;-50
2021/08/18 11:56:26;;;;;;;3.58;2.05;;;20.80;61.40;;;;;;5053110;28;20036;-50
2021/08/18 11:59:08;;;;;;;5.97;2.53;;;20.80;61.30;;;;;;5055778;28;20032;-50
2021/08/18 12:01:35;;;;;;;4.40;2.15;;;20.80;61.30;;;;;;5055983;28;20029;-50
2021/08/18 12:04:04;;;;;;;5.32;2.35;;;20.80;61.30;;;;;;5056964;28;20021;-50
2021/08/18 12:06:33;;;;;;;5.75;2.55;;;20.80;61.50;;;;;;5057376;28;20039;-50
2021/08/18 12:09:00;;;;;;;4.40;2.33;;;20.80;61.40;;;;;;5057104;28;20029;-50
2021/08/18 12:11:37;;;;;;;4.03;2.28;;;20.70;61.20;;;;;;5056588;28;20031;-50
2021/08/18 12:14:13;;;;;;;4.65;2.38;;;20.70;61.20;;;;;;5057068;28;20172;-50
2021/08/18 12:16:39;;;;;;;5.30;2.17;;;20.70;61.60;;;;;;5057556;28;20041;-50
2021/08/18 12:19:27;;;;;;;3.90;2.10;;;20.70;61.00;;;;;;5057010;28;20056;-50
2021/08/18 12:22:13;;;;;;;6.07;2.70;;;20.70;61.20;;;;;;5056203;28;20354;-50
2021/08/18 12:24:41;;;;;;;4.95;2.60;;;20.70;61.10;;;;;;5057701;28;20029;-50
2021/08/18 12:27:10;;;;;;;5.22;2.20;;;20.60;60.90;;;;;;5056526;28;20017;-50
2021/08/18 12:29:37;;;;;;;4.57;2.30;;;20.60;60.90;;;;;;5056812;28;20415;-50
2021/08/18 12:32:10;;;;;;;4.60;2.47;;;20.60;61.00;;;;;;5056303;28;20036;-50
2021/08/18 12:34:46;;;;;;;4.25;2.40;;;20.60;61.00;;;;;;5056336;28;20029;-50
2021/08/18 12:37:25;;;;;;;5.95;2.53;;;20.60;60.90;;;;;;5056523;28;20033;-50
2021/08/18 12:40:00;;;;;;;4.88;2.55;;;20.60;60.90;;;;;;5055209;28;20059;-50
2021/08/18 12:42:38;;;;;;;4.20;2.20;;;20.60;61.00;;;;;;5055605;28;20029;-50
2021/08/18 12:45:13;;;;;;;4.80;2.30;;;20.60;61.10;;;;;;5056369;28;20060;-50
2021/08/18 12:47:56;;;;;;;4.75;2.63;;;20.50;61.10;;;;;;5056361;28;20028;-50
2021/08/18 12:50:40;;;;;;;5.90;2.70;;;20.50;61.10;;;;;;5056233;28;20085;-50